createdAt,value
2023-04-02T00:01:19.436Z,100.00
2023-04-02T00:04:24.170Z,100.00
2023-04-02T00:07:33.429Z,100.00
2023-04-02T00:11:09.258Z,100.00
2023-04-02T00:14:33.677Z,100.00
2023-04-02T00:17:36.533Z,100.00
2023-04-02T00:20:43.153Z,100.00
2023-04-02T00:23:46.542Z,100.00
2023-04-02T00:26:51.890Z,100.00
2023-04-02T00:29:56.877Z,100.00
2023-04-02T00:32:59.717Z,99.81
2023-04-02T00:36:08.109Z,98.20
2023-04-02T00:39:21.262Z,97.16
2023-04-02T00:42:25.504Z,95.21
2023-04-02T00:45:32.350Z,95.42
2023-04-02T00:48:46.062Z,95.04
2023-04-02T00:51:55.261Z,93.42
2023-04-02T00:55:07.531Z,94.11
2023-04-02T00:58:27.897Z,91.50
2023-04-02T01:01:37.674Z,92.09
2023-04-02T01:04:41.812Z,89.29
2023-04-02T01:07:51.575Z,91.32
2023-04-02T01:11:04.789Z,91.44
2023-04-02T01:14:19.980Z,89.19
2023-04-02T01:17:43.876Z,88.59
2023-04-02T01:21:03.539Z,89.61
2023-04-02T01:24:09.571Z,90.16
2023-04-02T01:27:28.859Z,91.11
2023-04-02T01:30:35.015Z,91.71
2023-04-02T01:33:41.525Z,92.22
2023-04-02T01:37:06.005Z,92.30
2023-04-02T01:40:33.666Z,90.80
2023-04-02T01:44:08.314Z,89.00
2023-04-02T01:47:15.002Z,89.83
2023-04-02T01:50:21.086Z,90.04
2023-04-02T01:53:27.864Z,91.49
2023-04-02T01:56:30.825Z,91.50
2023-04-02T01:59:33.780Z,91.74
2023-04-02T02:02:40.987Z,92.04
2023-04-02T02:05:44.566Z,92.17
2023-04-02T02:08:56.611Z,92.13
2023-04-02T02:12:02.836Z,92.20
2023-04-02T02:15:16.172Z,92.72
2023-04-02T02:18:27.781Z,93.51
2023-04-02T02:21:36.696Z,93.37
2023-04-02T02:24:41.255Z,94.01
2023-04-02T02:28:10.485Z,94.09
2023-04-02T02:31:20.228Z,94.45
2023-04-02T02:34:37.267Z,95.29
2023-04-02T02:37:45.228Z,95.50
2023-04-02T02:40:54.896Z,95.19
2023-04-02T02:44:11.703Z,96.18
2023-04-02T02:47:32.780Z,96.38
2023-04-02T02:50:39.049Z,96.42
2023-04-02T02:53:53.028Z,96.37
2023-04-02T02:57:01.479Z,96.06
2023-04-02T03:00:09.993Z,95.25
2023-04-02T03:03:19.247Z,94.80
2023-04-02T03:06:25.966Z,94.03
2023-04-02T03:09:49.101Z,93.17
2023-04-02T03:13:00.159Z,92.89
2023-04-02T03:16:11.526Z,92.76
2023-04-02T03:19:49.964Z,89.30
2023-04-02T03:23:22.344Z,88.22
2023-04-02T03:26:58.131Z,88.99
2023-04-02T03:30:23.665Z,90.28
2023-04-02T03:33:41.012Z,91.46
2023-04-02T03:37:08.526Z,92.05
2023-04-02T03:40:21.005Z,93.01
2023-04-02T03:43:46.388Z,92.26
2023-04-02T03:46:58.415Z,92.58
2023-04-02T03:50:44.408Z,93.35
2023-04-02T03:53:48.664Z,94.65
2023-04-02T03:56:53.450Z,95.65
2023-04-02T04:00:14.520Z,96.09
2023-04-02T04:03:42.148Z,96.30
2023-04-02T04:06:49.941Z,96.27
2023-04-02T04:09:54.599Z,96.87
2023-04-02T04:13:05.534Z,95.79
2023-04-02T04:16:14.761Z,95.20
2023-04-02T04:19:23.026Z,95.13
2023-04-02T04:22:32.868Z,95.10
2023-04-02T04:25:49.584Z,95.73
2023-04-02T04:29:09.807Z,96.31
2023-04-02T04:32:35.055Z,94.86
2023-04-02T04:35:54.387Z,95.00
2023-04-02T04:39:06.093Z,95.24
2023-04-02T04:42:18.304Z,96.31
2023-04-02T04:45:47.950Z,96.45
2023-04-02T04:49:11.434Z,97.06
2023-04-02T04:52:23.884Z,96.80
2023-04-02T04:55:31.210Z,96.10
2023-04-02T04:59:02.444Z,96.87
2023-04-02T05:02:09.278Z,96.34
2023-04-02T05:05:20.224Z,94.33
2023-04-02T05:08:32.737Z,94.23
2023-04-02T05:11:46.116Z,94.08
2023-04-02T05:15:11.643Z,93.35
2023-04-02T05:18:31.147Z,92.78
2023-04-02T05:21:58.427Z,92.69
2023-04-02T05:25:11.334Z,92.19
2023-04-02T05:28:18.499Z,92.59
2023-04-02T05:31:33.005Z,92.64
2023-04-02T05:34:39.569Z,91.94
2023-04-02T05:37:43.577Z,91.40
2023-04-02T05:40:51.171Z,90.44
2023-04-02T05:44:35.053Z,90.02
2023-04-02T05:47:43.500Z,89.18
2023-04-02T05:50:54.590Z,88.32
2023-04-02T05:54:06.767Z,87.99
2023-04-02T05:57:16.312Z,87.24
2023-04-02T06:00:47.775Z,86.45
2023-04-02T06:04:03.030Z,86.84
2023-04-02T06:07:09.226Z,86.94
2023-04-02T06:10:24.758Z,87.06
2023-04-02T06:13:28.892Z,87.60
2023-04-02T06:16:34.629Z,87.75
2023-04-02T06:19:39.683Z,86.20
2023-04-02T06:23:52.751Z,86.44
2023-04-02T06:27:02.526Z,86.41
2023-04-02T06:30:10.230Z,86.03
2023-04-02T06:33:13.607Z,85.48
2023-04-02T06:36:21.407Z,83.73
2023-04-02T06:39:27.259Z,83.81
2023-04-02T06:42:36.176Z,83.25
2023-04-02T06:45:49.998Z,82.51
2023-04-02T06:49:40.517Z,82.17
2023-04-02T06:52:59.245Z,80.51
2023-04-02T06:56:33.133Z,79.61
2023-04-02T06:59:36.931Z,78.92
2023-04-02T07:02:43.464Z,76.55
2023-04-02T07:05:47.974Z,75.28
2023-04-02T07:08:51.483Z,70.82
2023-04-02T07:11:55.469Z,63.80
2023-04-02T07:14:58.408Z,61.08
2023-04-02T07:18:01.536Z,58.83
2023-04-02T07:21:04.886Z,58.95
2023-04-02T07:24:08.203Z,58.69
2023-04-02T07:27:12.573Z,57.11
2023-04-02T07:30:15.692Z,53.79
2023-04-02T07:33:21.855Z,52.79
2023-04-02T07:36:25.065Z,52.85
2023-04-02T07:39:27.858Z,48.07
2023-04-02T07:42:31.065Z,45.23
2023-04-02T07:45:34.133Z,44.54
2023-04-02T07:48:37.739Z,45.33
2023-04-02T07:51:40.875Z,44.96
2023-04-02T07:54:44.148Z,45.80
2023-04-02T07:57:52.381Z,45.60
2023-04-02T08:00:55.233Z,45.38
2023-04-02T08:03:58.373Z,46.89
2023-04-02T08:07:01.751Z,44.07
2023-04-02T08:10:05.293Z,42.44
2023-04-02T08:13:08.263Z,42.45
2023-04-02T08:16:11.284Z,42.72
2023-04-02T08:19:14.197Z,45.80
2023-04-02T08:22:17.019Z,44.67
2023-04-02T08:25:19.948Z,44.52
2023-04-02T08:28:23.094Z,43.75
2023-04-02T08:31:26.098Z,40.74
2023-04-02T08:34:29.000Z,40.95
2023-04-02T08:37:31.818Z,42.55
2023-04-02T08:40:39.190Z,43.98
2023-04-02T08:44:05.412Z,44.54
2023-04-02T08:47:10.962Z,44.28
2023-04-02T08:50:30.779Z,43.35
2023-04-02T08:53:40.521Z,41.29
2023-04-02T08:56:57.502Z,40.72
2023-04-02T09:00:10.745Z,41.50
2023-04-02T09:03:26.086Z,40.54
2023-04-02T09:06:29.909Z,40.83
2023-04-02T09:09:37.964Z,39.19
2023-04-02T09:12:42.409Z,37.04
2023-04-02T09:15:45.504Z,35.69
2023-04-02T09:18:50.753Z,36.88
2023-04-02T09:22:02.067Z,39.08
2023-04-02T09:25:12.605Z,40.95
2023-04-02T09:28:16.117Z,41.35
2023-04-02T09:31:34.597Z,40.13
2023-04-02T09:34:37.418Z,41.10
2023-04-02T09:37:41.019Z,41.64
2023-04-02T09:40:47.009Z,40.48
2023-04-02T09:43:49.941Z,38.47
2023-04-02T09:47:03.761Z,37.38
2023-04-02T09:50:22.051Z,37.81
2023-04-02T09:53:30.140Z,36.40
2023-04-02T09:56:37.856Z,36.97
2023-04-02T09:59:41.058Z,35.68
2023-04-02T10:02:46.790Z,35.73
2023-04-02T10:05:49.729Z,36.82
2023-04-02T10:08:52.597Z,34.96
2023-04-02T10:11:56.859Z,34.96
2023-04-02T10:15:01.525Z,35.33
2023-04-02T10:18:23.468Z,34.68
2023-04-02T10:21:37.868Z,34.72
2023-04-02T10:24:41.130Z,34.96
2023-04-02T10:27:59.040Z,32.79
2023-04-02T10:31:22.654Z,32.47
2023-04-02T10:34:31.227Z,34.64
2023-04-02T10:37:46.237Z,34.15
2023-04-02T10:40:55.866Z,34.02
2023-04-02T10:44:17.074Z,34.34
2023-04-02T10:47:38.309Z,33.67
2023-04-02T10:50:51.939Z,35.70
2023-04-02T10:54:13.930Z,37.13
2023-04-02T10:57:16.852Z,36.42
2023-04-02T11:00:28.030Z,34.61
2023-04-02T11:03:43.646Z,31.47
2023-04-02T11:06:58.058Z,31.91
2023-04-02T11:10:07.113Z,28.77
2023-04-02T11:13:20.795Z,26.15
2023-04-02T11:16:24.672Z,26.69
2023-04-02T11:19:36.094Z,25.88
2023-04-02T11:22:39.292Z,29.08
2023-04-02T11:25:43.356Z,35.00
2023-04-02T11:28:46.544Z,34.23
2023-04-02T11:31:52.593Z,37.54
2023-04-02T11:35:05.859Z,38.89
2023-04-02T11:38:10.041Z,37.04
2023-04-02T11:41:13.199Z,39.14
2023-04-02T11:44:24.341Z,39.33
2023-04-02T11:47:30.020Z,38.88
2023-04-02T11:50:44.673Z,35.38
2023-04-02T11:53:48.563Z,32.66
2023-04-02T11:57:16.012Z,34.06
2023-04-02T12:00:48.134Z,37.83
2023-04-02T12:03:57.150Z,41.13
2023-04-02T12:07:12.985Z,43.20
2023-04-02T12:10:17.652Z,42.79
2023-04-02T12:13:22.040Z,39.02
2023-04-02T12:16:31.570Z,38.79
2023-04-02T12:19:34.527Z,38.56
2023-04-02T12:22:47.809Z,39.90
2023-04-02T12:25:58.553Z,39.43
2023-04-02T12:29:16.704Z,39.30
2023-04-02T12:32:30.043Z,39.65
2023-04-02T12:35:36.754Z,36.02
2023-04-02T12:38:52.044Z,33.64
2023-04-02T12:41:55.238Z,30.01
2023-04-02T12:44:58.266Z,27.97
2023-04-02T12:48:05.682Z,31.25
2023-04-02T12:51:10.809Z,34.64
2023-04-02T12:54:17.784Z,37.39
2023-04-02T12:57:26.603Z,38.90
2023-04-02T13:00:31.716Z,41.25
2023-04-02T13:03:34.982Z,42.12
2023-04-02T13:06:39.312Z,42.46
2023-04-02T13:09:49.114Z,43.08
2023-04-02T13:12:58.005Z,44.02
2023-04-02T13:16:22.520Z,43.65
2023-04-02T13:19:29.912Z,39.16
2023-04-02T13:22:32.946Z,34.68
2023-04-02T13:25:37.085Z,30.04
2023-04-02T13:28:39.968Z,28.67
2023-04-02T13:31:43.361Z,31.39
2023-04-02T13:34:46.757Z,33.84
2023-04-02T13:37:49.744Z,32.42
2023-04-02T13:40:52.745Z,34.15
2023-04-02T13:43:59.893Z,35.39
2023-04-02T13:47:02.736Z,36.86
2023-04-02T13:50:05.898Z,39.21
2023-04-02T13:53:17.965Z,40.17
2023-04-02T13:56:23.072Z,42.44
2023-04-02T13:59:27.437Z,44.41
2023-04-02T14:02:30.894Z,45.12
2023-04-02T14:05:40.498Z,45.93
2023-04-02T14:09:11.317Z,46.37
2023-04-02T14:12:14.104Z,42.92
2023-04-02T14:15:47.690Z,39.76
2023-04-02T14:19:12.408Z,40.64
2023-04-02T14:22:43.499Z,42.05
2023-04-02T14:25:55.632Z,43.60
2023-04-02T14:29:29.205Z,43.99
2023-04-02T14:33:01.608Z,44.34
2023-04-02T14:36:24.307Z,42.28
2023-04-02T14:40:11.564Z,44.24
2023-04-02T14:43:41.004Z,44.62
2023-04-02T14:46:44.014Z,45.33
2023-04-02T14:49:50.803Z,46.99
2023-04-02T14:52:58.891Z,48.37
2023-04-02T14:56:06.357Z,49.01
2023-04-02T14:59:26.102Z,49.96
2023-04-02T15:02:58.149Z,50.57
2023-04-02T15:06:06.296Z,50.25
2023-04-02T15:09:30.899Z,51.13
2023-04-02T15:12:37.453Z,50.61
2023-04-02T15:15:49.181Z,50.57
2023-04-02T15:19:01.005Z,51.32
2023-04-02T15:22:29.709Z,52.49
2023-04-02T15:25:43.088Z,53.31
2023-04-02T15:28:58.484Z,53.21
2023-04-02T15:32:26.844Z,53.52
2023-04-02T15:35:39.723Z,52.90
2023-04-02T15:38:52.481Z,52.37
2023-04-02T15:42:10.765Z,53.44
2023-04-02T15:45:22.486Z,53.13
2023-04-02T15:48:39.628Z,53.32
2023-04-02T15:51:53.792Z,53.64
2023-04-02T15:55:10.709Z,54.27
2023-04-02T15:58:28.873Z,54.44
2023-04-02T16:01:42.988Z,54.86
2023-04-02T16:04:53.140Z,55.52
2023-04-02T16:08:43.986Z,55.49
2023-04-02T16:11:46.957Z,55.63
2023-04-02T16:14:50.096Z,55.64
2023-04-02T16:18:06.484Z,56.64
2023-04-02T16:21:14.709Z,57.01
2023-04-02T16:24:17.881Z,56.49
2023-04-02T16:27:38.770Z,57.00
2023-04-02T16:30:51.395Z,56.70
2023-04-02T16:34:18.523Z,56.97
2023-04-02T16:37:24.224Z,57.59
2023-04-02T16:40:33.285Z,58.40
2023-04-02T16:43:48.575Z,58.70
2023-04-02T16:47:04.366Z,59.66
2023-04-02T16:50:13.130Z,59.43
2023-04-02T16:54:01.669Z,59.97
2023-04-02T16:57:17.587Z,60.21
2023-04-02T17:00:38.891Z,60.88
2023-04-02T17:03:51.138Z,61.35
2023-04-02T17:07:23.596Z,61.56
2023-04-02T17:10:32.548Z,61.68
2023-04-02T17:14:12.542Z,61.91
2023-04-02T17:17:16.648Z,62.08
2023-04-02T17:20:23.721Z,61.93
2023-04-02T17:23:28.367Z,62.07
2023-04-02T17:26:35.110Z,62.66
2023-04-02T17:29:41.168Z,62.86
2023-04-02T17:32:44.536Z,62.98
2023-04-02T17:36:00.014Z,63.62
2023-04-02T17:39:49.584Z,64.17
2023-04-02T17:43:17.845Z,64.01
2023-04-02T17:46:53.978Z,64.49
2023-04-02T17:50:12.517Z,64.92
2023-04-02T17:53:15.583Z,65.13
2023-04-02T17:56:41.527Z,65.10
2023-04-02T17:59:54.168Z,65.61
2023-04-02T18:03:16.085Z,65.53
2023-04-02T18:06:27.322Z,65.66
2023-04-02T18:09:39.115Z,65.97
2023-04-02T18:12:57.163Z,66.33
2023-04-02T18:16:00.464Z,66.25
2023-04-02T18:19:25.007Z,66.93
2023-04-02T18:22:46.624Z,67.09
2023-04-02T18:25:49.719Z,68.13
2023-04-02T18:29:15.019Z,68.02
2023-04-02T18:32:27.556Z,68.29
2023-04-02T18:35:43.461Z,68.42
2023-04-02T18:39:02.132Z,68.37
2023-04-02T18:42:39.216Z,68.81
2023-04-02T18:45:48.331Z,68.87
2023-04-02T18:49:18.450Z,70.00
2023-04-02T18:52:25.054Z,69.99
2023-04-02T18:55:30.677Z,70.75
2023-04-02T18:58:43.084Z,70.72
2023-04-02T19:01:51.601Z,72.10
2023-04-02T19:05:36.204Z,71.75
2023-04-02T19:08:48.332Z,72.06
2023-04-02T19:11:53.171Z,71.83
2023-04-02T19:14:59.125Z,71.42
2023-04-02T19:18:10.829Z,71.62
2023-04-02T19:21:54.374Z,71.74
2023-04-02T19:25:18.340Z,72.28
2023-04-02T19:28:34.055Z,71.90
2023-04-02T19:31:47.596Z,71.74
2023-04-02T19:35:09.576Z,71.36
2023-04-02T19:38:34.221Z,70.96
2023-04-02T19:41:49.731Z,70.61
2023-04-02T19:44:54.275Z,70.68
2023-04-02T19:48:00.976Z,70.93
2023-04-02T19:51:04.158Z,71.71
2023-04-02T19:54:07.289Z,71.86
2023-04-02T19:57:15.818Z,71.39
2023-04-02T20:00:19.247Z,70.72
2023-04-02T20:03:22.978Z,70.32
2023-04-02T20:06:26.394Z,71.12
2023-04-02T20:09:30.009Z,70.83
2023-04-02T20:12:33.360Z,70.30
2023-04-02T20:15:36.792Z,70.01
2023-04-02T20:18:40.598Z,69.67
2023-04-02T20:21:44.047Z,67.17
2023-04-02T20:24:47.134Z,63.39
2023-04-02T20:27:50.157Z,62.65
2023-04-02T20:30:53.965Z,63.09
2023-04-02T20:33:58.277Z,63.77
2023-04-02T20:37:03.624Z,64.22
2023-04-02T20:40:07.377Z,64.24
2023-04-02T20:43:10.878Z,64.61
2023-04-02T20:46:14.467Z,65.25
2023-04-02T20:49:17.413Z,65.42
2023-04-02T20:52:22.165Z,63.88
2023-04-02T20:55:25.018Z,64.11
2023-04-02T20:58:37.761Z,64.36
2023-04-02T21:01:43.727Z,64.98
2023-04-02T21:04:46.654Z,65.33
2023-04-02T21:07:49.539Z,65.94
2023-04-02T21:10:52.433Z,66.87
2023-04-02T21:13:55.442Z,66.87
2023-04-02T21:16:58.293Z,66.22
2023-04-02T21:20:01.179Z,66.36
2023-04-02T21:23:04.039Z,66.50
2023-04-02T21:26:07.893Z,66.67
2023-04-02T21:29:12.506Z,66.06
2023-04-02T21:32:21.619Z,66.16
2023-04-02T21:35:25.098Z,66.30
2023-04-02T21:38:28.385Z,66.60
2023-04-02T21:41:32.950Z,66.48
2023-04-02T21:44:35.696Z,67.31
2023-04-02T21:47:38.611Z,67.01
2023-04-02T21:50:41.594Z,67.14
2023-04-02T21:53:45.450Z,67.08
2023-04-02T21:56:54.101Z,66.92
2023-04-02T21:59:59.941Z,67.38
2023-04-02T22:03:03.010Z,68.08
2023-04-02T22:06:10.641Z,67.76
2023-04-02T22:09:17.200Z,68.01
2023-04-02T22:12:20.091Z,68.17
2023-04-02T22:15:22.895Z,68.66
2023-04-02T22:18:26.031Z,68.31
2023-04-02T22:21:30.861Z,68.42
2023-04-02T22:24:33.678Z,67.03
2023-04-02T22:27:36.452Z,67.75
2023-04-02T22:30:39.482Z,67.22
2023-04-02T22:33:44.535Z,67.99
2023-04-02T22:36:47.523Z,67.30
2023-04-02T22:39:50.543Z,67.68
2023-04-02T22:42:53.609Z,67.15
2023-04-02T22:45:56.429Z,67.03
2023-04-02T22:48:59.397Z,66.91
2023-04-02T22:52:03.816Z,67.39
2023-04-02T22:55:08.082Z,67.81
2023-04-02T22:58:11.062Z,68.73
2023-04-02T23:01:21.757Z,68.08
2023-04-02T23:04:24.681Z,68.55
2023-04-02T23:07:27.494Z,69.06
2023-04-02T23:10:30.968Z,68.59
2023-04-02T23:13:34.830Z,68.94
2023-04-02T23:16:37.689Z,69.60
2023-04-02T23:19:40.517Z,69.16
2023-04-02T23:22:43.407Z,69.63
2023-04-02T23:25:46.279Z,69.79
2023-04-02T23:28:50.717Z,69.42
2023-04-02T23:31:53.576Z,69.91
2023-04-02T23:34:56.575Z,69.75
2023-04-02T23:37:59.505Z,69.73
2023-04-02T23:41:02.354Z,69.91
2023-04-02T23:44:06.047Z,69.64
2023-04-02T23:47:09.650Z,69.79
2023-04-02T23:50:12.623Z,68.93
2023-04-02T23:53:16.578Z,69.11
2023-04-02T23:56:20.128Z,69.27
2023-04-02T23:59:22.922Z,68.66
